Hlavní strana
METAR-TAF:

METAR-TAF

Letiště :

Kittilä, Finsko

zeměpisná šířka: 67-42N, zeměpisná délka: 024-51E, výška: 196 m

Aktuální stav počasí

Zpráva byla vytvořena před 34 minutami, v 13:20 UTC
Severovýchodní vítr 9 kt, proměnlivý mezi severoseverovýchodním a východním
Teplota -2°C
Vlhkost vzduchu 86%
Tlak 997 hPa
Viditelnost: 2000 m
Skoro jasno ve výšce 600 ft
Oblačno až skoro zataženo ve výšce 1800 ft
slabé sněžení

METAR: EFKT 181320Z 04009KT 020V080 2000 -SN FEW006 BKN018 M02/M04 Q0997

Čas: 15:54 (13:54 UTC)

Předpověď počasí

Zpráva byla vytvořena před 1 hodinou a 5 minutami, v 12:49 UTC
Předpověď platná od 18 v 12 UTC do 18 v 17 UTC
Severovýchodní vítr 10 kt
Viditelnost: 3000 m
Polojasno ve výšce 500 ft
Oblačno až skoro zataženo ve výšce 1500 ft
slabé sněžení
Dočasný
od 18 v 12 UTC do 18 v 17 UTC
Viditelnost: 1000 m
Oblačno až skoro zataženo ve výšce 500 ft
sníh

TAF: EFKT 181249Z 1812/1817 04010KT 3000 -SN SCT005 BKN015 TEMPO 1812/1817 1000 SN BKN005

Stav a předpovědi počasí z více než 4 000 letišť (zprávy METAR a TAF).

Červené a žluté tečky na mapě představují dostupné meteorologické stanice.

Když kurzor umístíte na tečku, zobrazí se název stanice.

Pak kliknutím zobrazíte stav a předpověď počasí.

Chcete-li změnit mapu, kliknutím na zelené tlačítko se znaménkem +mapu přiblížíte, kliknutím na zelené tlačítko se znaménkem – mapu oddálíte a kliknutím na zelené šipky přejdete na sousední mapy.


METAR-TAF: